Time,TemperatureF,DewpointF,PressureIn,WindDirection,WindDirectionDegrees,WindSpeedMPH,WindSpeedGustMPH,Humidity,HourlyPrecipIn,Conditions,Clouds,dailyrainin,SoftwareType,DateUTC
2013-07-31 00:03:00,74.7,67.7,30.03,ESE,107,0.0,0.0,79,0.00,,,0.00,WeatherDisplay:10.36,2013-07-31 05:03:00,
2013-07-31 00:08:00,74.7,67.7,30.03,SSW,194,0.0,0.0,79,0.00,,,0.00,WeatherDisplay:10.36,2013-07-31 05:08:00,
2013-07-31 00:13:00,74.7,67.7,30.03,SSW,201,0.0,0.0,79,0.00,,,0.00,WeatherDisplay:10.36,2013-07-31 05:13:00,
2013-07-31 00:18:00,74.7,67.7,30.03,ESE,102,0.0,0.0,79,0.00,,,0.00,WeatherDisplay:10.36,2013-07-31 05:18:00,
2013-07-31 00:23:00,74.7,67.7,30.03,ENE,66,0.0,0.0,79,0.00,,,0.00,WeatherDisplay:10.36,2013-07-31 05:23:00,
2013-07-31 00:28:00,74.7,67.7,30.03,South,177,0.0,0.0,79,0.00,,,0.00,WeatherDisplay:10.36,2013-07-31 05:28:00,
2013-07-31 00:33:00,74.7,67.7,30.03,NE,50,0.0,0.0,79,0.00,,,0.00,WeatherDisplay:10.36,2013-07-31 05:33:00,
2013-07-31 00:38:00,74.7,67.7,30.03,South,172,0.0,0.0,79,0.00,,,0.00,WeatherDisplay:10.36,2013-07-31 05:38:00,
2013-07-31 00:43:00,74.7,67.7,30.03,East,88,0.0,0.0,79,0.00,,,0.00,WeatherDisplay:10.36,2013-07-31 05:43:00,
2013-07-31 00:48:00,74.7,67.7,30.03,ESE,117,0.0,0.0,79,0.00,,,0.00,WeatherDisplay:10.36,2013-07-31 05:48:00,
2013-07-31 00:53:00,74.7,67.7,30.03,ENE,57,0.0,0.0,79,0.00,,,0.00,WeatherDisplay:10.36,2013-07-31 05:53:00,
2013-07-31 00:58:00,74.7,67.7,30.03,ESE,109,0.0,0.0,79,0.00,,,0.00,WeatherDisplay:10.36,2013-07-31 05:58:00,
2013-07-31 01:03:00,74.7,67.7,30.03,SSE,151,0.0,0.0,79,0.00,,,0.00,WeatherDisplay:10.36,2013-07-31 06:03:00,
2013-07-31 01:08:00,74.7,67.7,30.03,SSE,153,0.0,0.0,79,0.00,,,0.00,WeatherDisplay:10.36,2013-07-31 06:08:00,
2013-07-31 01:13:00,74.7,67.7,30.03,SSE,154,0.0,0.0,79,0.00,,,0.00,WeatherDisplay:10.36,2013-07-31 06:13:00,
2013-07-31 01:18:00,74.5,67.5,30.03,NE,50,0.0,0.0,79,0.00,,,0.00,WeatherDisplay:10.36,2013-07-31 06:18:00,
2013-07-31 01:23:00,74.5,67.5,30.03,South,185,0.0,0.0,79,0.00,,,0.00,WeatherDisplay:10.36,2013-07-31 06:23:00,
2013-07-31 01:28:00,74.5,67.5,30.03,East,98,0.0,0.0,79,0.00,,,0.00,WeatherDisplay:10.36,2013-07-31 06:28:00,
2013-07-31 01:33:00,74.5,67.5,30.00,SSW,194,0.0,0.0,79,0.00,,,0.00,WeatherDisplay:10.36,2013-07-31 06:33:00,
2013-07-31 01:38:00,74.5,67.5,30.00,East,101,0.0,0.0,79,0.00,,,0.00,WeatherDisplay:10.36,2013-07-31 06:38:00,
2013-07-31 01:43:00,74.3,67.7,30.00,North,351,0.0,0.0,80,0.00,,,0.00,WeatherDisplay:10.36,2013-07-31 06:43:00,
2013-07-31 01:48:00,74.1,67.6,30.82,North,351,3.6,3.6,80,0.00,,,0.00,WeatherDisplay:10.36,2013-07-31 06:48:00,
2013-07-31 01:53:00,73.8,67.2,30.82,North,351,0.0,0.0,80,0.00,,,0.00,WeatherDisplay:10.36,2013-07-31 06:53:00,
2013-07-31 01:58:00,73.8,67.6,30.82,North,351,0.0,0.0,81,0.00,,,0.00,WeatherDisplay:10.36,2013-07-31 06:58:00,
2013-07-31 02:03:00,73.9,68.1,30.82,North,351,0.0,0.0,82,0.00,,,0.00,WeatherDisplay:10.36,2013-07-31 07:03:00,
2013-07-31 02:08:00,73.9,68.1,30.82,North,351,0.0,0.0,82,0.00,,,0.00,WeatherDisplay:10.36,2013-07-31 07:08:00,
2013-07-31 02:13:00,73.9,68.1,30.82,North,351,0.0,0.0,82,0.00,,,0.00,WeatherDisplay:10.36,2013-07-31 07:13:00,
2013-07-31 02:18:00,73.9,68.1,30.82,North,351,0.0,0.0,82,0.00,,,0.00,WeatherDisplay:10.36,2013-07-31 07:18:00,
2013-07-31 02:23:00,73.9,68.1,30.82,North,351,0.0,0.0,82,0.00,,,0.00,WeatherDisplay:10.36,2013-07-31 07:23:00,
2013-07-31 02:28:00,73.9,68.1,30.82,North,351,0.0,0.0,82,0.00,,,0.00,WeatherDisplay:10.36,2013-07-31 07:28:00,
2013-07-31 02:33:00,73.9,68.1,30.82,North,351,0.0,0.0,82,0.00,,,0.00,WeatherDisplay:10.36,2013-07-31 07:33:00,
2013-07-31 02:38:00,73.8,67.6,30.82,North,351,0.0,0.0,81,0.00,,,0.00,WeatherDisplay:10.36,2013-07-31 07:38:00,
2013-07-31 02:43:00,73.8,67.6,30.82,North,351,0.0,0.0,81,0.00,,,0.00,WeatherDisplay:10.36,2013-07-31 07:43:00,
2013-07-31 02:48:00,73.8,67.9,30.82,North,351,0.0,0.0,82,0.00,,,0.00,WeatherDisplay:10.36,2013-07-31 07:48:00,
2013-07-31 02:53:00,73.6,67.4,30.82,North,351,0.0,2.7,81,0.00,,,0.00,WeatherDisplay:10.36,2013-07-31 07:53:00,
2013-07-31 02:58:00,73.6,67.4,30.82,NE,45,0.0,0.0,81,0.00,,,0.00,WeatherDisplay:10.36,2013-07-31 07:58:00,
2013-07-31 03:03:00,73.4,67.2,30.03,NE,42,0.0,3.1,81,0.00,,,0.00,WeatherDisplay:10.36,2013-07-31 08:03:00,
2013-07-31 03:08:00,73.2,67.4,30.03,NE,44,0.0,0.0,82,0.00,,,0.00,WeatherDisplay:10.36,2013-07-31 08:08:00,
2013-07-31 03:13:00,73.2,67.4,30.03,NE,46,0.0,0.0,82,0.00,,,0.00,WeatherDisplay:10.36,2013-07-31 08:13:00,
2013-07-31 03:18:00,73.2,67.4,30.03,NE,43,0.0,0.0,82,0.00,,,0.00,WeatherDisplay:10.36,2013-07-31 08:18:00,
2013-07-31 03:23:00,73.2,67.4,30.03,NE,43,0.0,0.0,82,0.00,,,0.00,WeatherDisplay:10.36,2013-07-31 08:23:00,
2013-07-31 03:28:00,73.0,67.2,30.03,NE,45,0.0,0.0,82,0.00,,,0.00,WeatherDisplay:10.36,2013-07-31 08:28:00,
2013-07-31 03:33:00,73.0,67.2,30.79,North,351,0.0,2.7,82,0.00,,,0.00,WeatherDisplay:10.36,2013-07-31 08:33:00,
2013-07-31 03:38:00,72.9,67.0,30.79,North,351,5.8,0.0,82,0.00,,,0.00,WeatherDisplay:10.36,2013-07-31 08:38:00,
2013-07-31 03:43:00,72.9,67.4,30.79,NE,43,3.6,3.6,83,0.00,,,0.00,WeatherDisplay:10.36,2013-07-31 08:43:00,
2013-07-31 03:48:00,72.9,67.4,30.03,NE,44,4.0,0.0,83,0.00,,,0.00,WeatherDisplay:10.36,2013-07-31 08:48:00,
2013-07-31 03:53:00,72.9,67.4,30.03,North,351,0.0,0.0,83,0.00,,,0.00,WeatherDisplay:10.36,2013-07-31 08:53:00,
2013-07-31 03:58:00,72.9,67.4,30.03,NE,43,0.0,0.0,83,0.00,,,0.00,WeatherDisplay:10.36,2013-07-31 08:58:00,
2013-07-31 04:03:00,72.7,67.2,30.03,SSE,153,0.0,0.0,83,0.00,,,0.00,WeatherDisplay:10.36,2013-07-31 09:03:00,
2013-07-31 04:08:00,72.7,67.2,30.03,NE,41,0.0,0.0,83,0.00,,,0.00,WeatherDisplay:10.36,2013-07-31 09:08:00,
2013-07-31 04:13:00,72.7,67.2,30.03,NE,40,0.0,0.0,83,0.00,,,0.00,WeatherDisplay:10.36,2013-07-31 09:13:00,
2013-07-31 04:18:00,72.5,67.0,30.03,NE,42,0.0,0.0,83,0.00,,,0.00,WeatherDisplay:10.36,2013-07-31 09:18:00,
2013-07-31 04:23:00,72.5,67.0,30.03,North,351,0.0,2.7,83,0.00,,,0.00,WeatherDisplay:10.36,2013-07-31 09:23:00,
2013-07-31 04:28:00,72.3,66.9,30.03,North,351,0.0,0.0,83,0.00,,,0.00,WeatherDisplay:10.36,2013-07-31 09:28:00,
2013-07-31 04:33:00,72.3,66.9,30.82,SW,228,2.7,0.0,83,0.00,,,0.00,WeatherDisplay:10.36,2013-07-31 09:33:00,
2013-07-31 04:38:00,72.3,66.9,30.82,NE,42,2.7,0.0,83,0.00,,,0.00,WeatherDisplay:10.36,2013-07-31 09:38:00,
2013-07-31 04:43:00,72.1,66.7,30.82,NE,42,0.0,0.0,83,0.00,,,0.00,WeatherDisplay:10.36,2013-07-31 09:43:00,
2013-07-31 04:48:00,72.1,66.7,30.03,NE,43,0.0,0.0,83,0.00,,,0.00,WeatherDisplay:10.36,2013-07-31 09:48:00,
2013-07-31 04:53:00,72.1,66.7,30.03,NE,43,0.0,0.0,83,0.00,,,0.00,WeatherDisplay:10.36,2013-07-31 09:53:00,
2013-07-31 04:58:00,72.1,66.7,30.03,NE,43,0.0,0.0,83,0.00,,,0.00,WeatherDisplay:10.36,2013-07-31 09:58:00,
2013-07-31 05:03:00,72.1,66.7,30.03,West,261,0.0,0.0,83,0.00,,,0.00,WeatherDisplay:10.36,2013-07-31 10:03:00,
2013-07-31 05:08:00,72.0,66.5,30.03,North,351,0.0,0.0,83,0.00,,,0.00,WeatherDisplay:10.36,2013-07-31 10:08:00,
2013-07-31 05:13:00,72.0,66.5,30.03,North,351,0.0,0.0,83,0.00,,,0.00,WeatherDisplay:10.36,2013-07-31 10:13:00,
2013-07-31 05:19:00,71.8,66.3,30.03,North,351,5.4,5.4,83,0.00,,,0.00,WeatherDisplay:10.36,2013-07-31 10:19:00,
2013-07-31 05:24:00,71.6,66.2,30.82,North,351,4.6,4.6,83,0.00,,,0.00,WeatherDisplay:10.36,2013-07-31 10:24:00,
2013-07-31 05:29:00,71.6,66.2,30.82,NE,44,3.6,3.6,83,0.00,,,0.00,WeatherDisplay:10.36,2013-07-31 10:29:00,
2013-07-31 05:34:00,71.8,66.7,30.03,NE,43,5.8,0.0,84,0.00,,,0.00,WeatherDisplay:10.36,2013-07-31 10:34:00,
2013-07-31 05:39:00,71.8,66.7,30.03,NE,41,0.0,0.0,84,0.00,,,0.00,WeatherDisplay:10.36,2013-07-31 10:39:00,
2013-07-31 05:44:00,71.8,66.7,30.03,NE,41,0.0,0.0,84,0.00,,,0.00,WeatherDisplay:10.36,2013-07-31 10:44:00,
2013-07-31 05:49:00,71.6,66.5,30.03,NE,43,0.0,0.0,84,0.00,,,0.00,WeatherDisplay:10.36,2013-07-31 10:49:00,
2013-07-31 05:54:00,71.4,66.0,30.03,North,351,3.5,0.0,83,0.00,,,0.00,WeatherDisplay:10.36,2013-07-31 10:54:00,
2013-07-31 06:00:00,70.9,65.5,30.03,NE,39,4.6,4.6,83,0.00,,,0.00,WeatherDisplay:10.36,2013-07-31 11:00:00,
2013-07-31 06:05:00,70.5,65.4,30.03,NE,42,0.0,0.0,84,0.00,,,0.00,WeatherDisplay:10.36,2013-07-31 11:05:00,
2013-07-31 06:10:00,70.5,65.4,30.03,NE,41,5.4,5.4,84,0.00,,,0.00,WeatherDisplay:10.36,2013-07-31 11:10:00,
2013-07-31 06:15:00,70.5,65.8,30.03,NE,42,3.6,0.0,85,0.00,,,0.00,WeatherDisplay:10.36,2013-07-31 11:15:00,
2013-07-31 06:20:00,70.5,65.8,30.85,North,351,0.0,0.0,85,0.00,,,0.00,WeatherDisplay:10.36,2013-07-31 11:20:00,
2013-07-31 06:25:00,70.3,65.6,30.85,NE,43,6.9,6.9,85,0.00,,,0.00,WeatherDisplay:10.36,2013-07-31 11:25:00,
2013-07-31 06:30:00,70.3,65.6,30.85,North,351,4.5,4.5,85,0.00,,,0.00,WeatherDisplay:10.36,2013-07-31 11:30:00,
2013-07-31 06:35:00,70.2,65.4,30.82,NE,42,4.6,4.6,85,0.00,,,0.00,WeatherDisplay:10.36,2013-07-31 11:35:00,
2013-07-31 06:40:00,70.0,65.3,30.82,NE,42,3.1,0.0,85,0.00,,,0.00,WeatherDisplay:10.36,2013-07-31 11:40:00,
2013-07-31 06:45:00,69.8,65.1,30.82,ENE,58,3.1,0.0,85,0.00,,,0.00,WeatherDisplay:10.36,2013-07-31 11:45:00,
2013-07-31 06:50:00,69.8,65.4,30.85,NNE,27,0.0,0.0,86,0.00,,,0.00,WeatherDisplay:10.36,2013-07-31 11:50:00,
2013-07-31 06:55:00,69.8,65.4,30.85,North,351,0.0,0.0,86,0.00,,,0.00,WeatherDisplay:10.36,2013-07-31 11:55:00,
2013-07-31 07:00:00,69.8,65.4,30.85,North,351,0.0,0.0,86,0.00,,,0.00,WeatherDisplay:10.36,2013-07-31 12:00:00,
2013-07-31 07:05:00,70.0,65.6,30.85,NE,40,3.6,0.0,86,0.00,,,0.00,WeatherDisplay:10.36,2013-07-31 12:05:00,
2013-07-31 07:11:00,70.0,65.6,30.85,NE,43,4.9,0.0,86,0.00,,,0.00,WeatherDisplay:10.36,2013-07-31 12:11:00,
2013-07-31 07:16:00,70.2,66.1,30.85,NE,43,0.0,0.0,87,0.00,,,0.00,WeatherDisplay:10.36,2013-07-31 12:16:00,
2013-07-31 07:22:00,70.3,66.3,30.06,NE,43,3.6,0.0,87,0.00,,,0.00,WeatherDisplay:10.36,2013-07-31 12:22:00,
2013-07-31 07:27:00,70.5,66.5,30.06,NE,43,3.1,0.0,87,0.00,,,0.00,WeatherDisplay:10.36,2013-07-31 12:27:00,
2013-07-31 07:32:00,70.7,66.6,30.06,NE,42,0.0,0.0,87,0.00,,,0.00,WeatherDisplay:10.36,2013-07-31 12:32:00,
2013-07-31 07:37:00,70.7,66.3,30.06,West,263,3.5,0.0,86,0.00,,,0.00,WeatherDisplay:10.36,2013-07-31 12:37:00,
2013-07-31 07:42:00,70.7,66.3,30.06,West,264,0.0,0.0,86,0.00,,,0.00,WeatherDisplay:10.36,2013-07-31 12:42:00,
2013-07-31 07:47:00,70.9,66.5,30.06,NE,42,3.5,0.0,86,0.00,,,0.00,WeatherDisplay:10.36,2013-07-31 12:47:00,
2013-07-31 07:52:00,71.1,66.7,30.06,NE,38,0.0,0.0,86,0.00,,,0.00,WeatherDisplay:10.36,2013-07-31 12:52:00,
2013-07-31 07:57:00,71.1,66.7,30.06,NE,39,0.0,0.0,86,0.00,,,0.00,WeatherDisplay:10.36,2013-07-31 12:57:00,
2013-07-31 08:02:00,71.2,66.8,30.06,NE,40,3.5,0.0,86,0.00,,,0.00,WeatherDisplay:10.36,2013-07-31 13:02:00,
2013-07-31 08:07:00,71.2,66.8,30.06,NE,41,4.6,0.0,86,0.00,,,0.00,WeatherDisplay:10.36,2013-07-31 13:07:00,
2013-07-31 08:12:00,71.2,66.8,30.06,NE,41,0.0,0.0,86,0.00,,,0.00,WeatherDisplay:10.36,2013-07-31 13:12:00,
2013-07-31 08:17:00,71.4,67.0,30.06,NE,40,2.3,0.0,86,0.00,,,0.00,WeatherDisplay:10.36,2013-07-31 13:17:00,
2013-07-31 08:22:00,71.4,67.0,30.06,NE,39,0.0,0.0,86,0.00,,,0.00,WeatherDisplay:10.36,2013-07-31 13:22:00,
2013-07-31 08:27:00,71.6,66.8,30.06,West,264,4.0,0.0,85,0.00,,,0.00,WeatherDisplay:10.36,2013-07-31 13:27:00,
2013-07-31 08:32:00,71.4,66.3,30.88,North,351,3.5,3.5,84,0.00,,,0.00,WeatherDisplay:10.36,2013-07-31 13:32:00,
2013-07-31 08:38:00,71.4,66.3,30.88,North,351,0.0,0.0,84,0.00,,,0.00,WeatherDisplay:10.36,2013-07-31 13:38:00,
2013-07-31 08:43:00,71.4,66.3,30.88,North,351,0.0,0.0,84,0.00,,,0.00,WeatherDisplay:10.36,2013-07-31 13:43:00,
2013-07-31 08:48:00,71.6,66.5,30.88,NE,41,2.7,3.6,84,0.00,,,0.00,WeatherDisplay:10.36,2013-07-31 13:48:00,
2013-07-31 08:53:00,71.6,66.5,30.88,North,351,0.0,0.0,84,0.00,,,0.00,WeatherDisplay:10.36,2013-07-31 13:53:00,
2013-07-31 08:58:00,71.6,66.2,30.88,NE,41,3.1,0.0,83,0.00,,,0.00,WeatherDisplay:10.36,2013-07-31 13:58:00,
2013-07-31 09:03:00,71.8,66.3,30.06,North,351,6.3,6.3,83,0.00,,,0.00,WeatherDisplay:10.36,2013-07-31 14:03:00,
2013-07-31 09:08:00,71.6,65.5,30.06,North,351,4.5,4.5,81,0.00,,,0.00,WeatherDisplay:10.36,2013-07-31 14:08:00,
2013-07-31 09:13:00,71.4,65.3,30.06,North,351,0.0,0.0,81,0.00,,,0.00,WeatherDisplay:10.36,2013-07-31 14:13:00,
2013-07-31 09:18:00,71.4,65.3,30.88,North,351,0.0,0.0,81,0.00,,,0.00,WeatherDisplay:10.36,2013-07-31 14:18:00,
2013-07-31 09:23:00,71.6,65.5,30.88,North,351,0.0,0.0,81,0.00,,,0.00,WeatherDisplay:10.36,2013-07-31 14:23:00,
2013-07-31 09:28:00,71.8,65.6,30.88,North,351,3.6,0.0,81,0.00,,,0.00,WeatherDisplay:10.36,2013-07-31 14:28:00,
2013-07-31 09:33:00,72.0,65.8,30.88,North,351,0.0,0.0,81,0.00,,,0.00,WeatherDisplay:10.36,2013-07-31 14:33:00,
2013-07-31 09:38:00,72.5,66.3,30.88,North,351,0.0,0.0,81,0.00,,,0.00,WeatherDisplay:10.36,2013-07-31 14:38:00,
2013-07-31 09:43:00,72.9,66.7,30.88,North,351,0.0,2.7,81,0.00,,,0.00,WeatherDisplay:10.36,2013-07-31 14:43:00,
2013-07-31 09:48:00,73.2,66.3,30.06,North,351,4.6,4.6,79,0.00,,,0.00,WeatherDisplay:10.36,2013-07-31 14:48:00,
2013-07-31 09:53:00,73.0,65.8,30.06,NE,40,3.6,4.0,78,0.00,,,0.00,WeatherDisplay:10.36,2013-07-31 14:53:00,
2013-07-31 09:58:00,73.0,65.8,30.06,NE,40,0.0,0.0,78,0.00,,,0.00,WeatherDisplay:10.36,2013-07-31 14:58:00,
2013-07-31 10:03:00,73.2,65.6,30.06,NE,39,0.0,0.0,77,0.00,,,0.00,WeatherDisplay:10.36,2013-07-31 15:03:00,
2013-07-31 10:08:00,73.2,65.6,30.06,North,351,0.0,3.1,77,0.00,,,0.00,WeatherDisplay:10.36,2013-07-31 15:08:00,
2013-07-31 10:13:00,73.0,65.0,30.06,North,351,0.0,0.0,76,0.00,,,0.00,WeatherDisplay:10.36,2013-07-31 15:13:00,
2013-07-31 10:18:00,72.9,64.8,30.88,NE,43,0.0,0.0,76,0.00,,,0.00,WeatherDisplay:10.36,2013-07-31 15:18:00,
2013-07-31 10:20:00,72.7,64.3,30.88,NNE,27,5.8,5.8,75,0.00,,,0.00,WeatherDisplay:10.36,2013-07-31 15:20:00,
2013-07-31 10:25:00,72.5,64.1,30.88,NNE,27,0.0,0.0,75,0.00,,,0.00,WeatherDisplay:10.36,2013-07-31 15:25:00,
2013-07-31 10:30:00,72.7,64.7,30.88,North,351,4.6,4.6,76,0.00,,,0.00,WeatherDisplay:10.36,2013-07-31 15:30:00,
2013-07-31 10:35:00,72.7,64.7,30.88,North,351,0.0,0.0,76,0.00,,,0.00,WeatherDisplay:10.36,2013-07-31 15:35:00,
2013-07-31 10:41:00,72.9,64.8,30.88,North,351,0.0,0.0,76,0.00,,,0.00,WeatherDisplay:10.36,2013-07-31 15:41:00,
2013-07-31 10:47:00,72.9,64.5,30.88,North,351,4.0,0.0,75,0.00,,,0.00,WeatherDisplay:10.36,2013-07-31 15:47:00,
2013-07-31 10:52:00,72.7,64.3,30.88,NE,40,4.9,4.9,75,0.00,,,0.00,WeatherDisplay:10.36,2013-07-31 15:52:00,
2013-07-31 10:57:00,72.5,63.7,30.88,NE,52,5.8,0.0,74,0.00,,,0.00,WeatherDisplay:10.36,2013-07-31 15:57:00,
2013-07-31 11:02:00,72.5,64.1,30.06,NE,41,4.0,0.0,75,0.00,,,0.00,WeatherDisplay:10.36,2013-07-31 16:02:00,
2013-07-31 11:07:00,72.7,64.3,30.06,NE,40,0.0,0.0,75,0.00,,,0.00,WeatherDisplay:10.36,2013-07-31 16:07:00,
2013-07-31 11:12:00,73.0,64.6,30.06,North,351,6.3,6.3,75,0.00,,,0.00,WeatherDisplay:10.36,2013-07-31 16:12:00,
2013-07-31 11:17:00,73.2,64.8,30.88,North,351,0.0,0.0,75,0.00,,,0.00,WeatherDisplay:10.36,2013-07-31 16:17:00,
2013-07-31 11:22:00,73.4,65.0,30.88,NE,39,4.6,4.6,75,0.00,,,0.00,WeatherDisplay:10.36,2013-07-31 16:22:00,
2013-07-31 11:27:00,73.8,65.0,30.88,North,351,0.0,4.5,74,0.00,,,0.00,WeatherDisplay:10.36,2013-07-31 16:27:00,
2013-07-31 11:32:00,73.8,64.6,30.06,NE,39,5.8,5.8,73,0.00,,,0.00,WeatherDisplay:10.36,2013-07-31 16:32:00,
2013-07-31 11:37:00,73.6,64.4,30.06,North,351,2.7,0.0,73,0.00,,,0.00,WeatherDisplay:10.36,2013-07-31 16:37:00,
2013-07-31 11:42:00,73.8,64.6,30.06,NE,39,0.0,0.0,73,0.00,,,0.00,WeatherDisplay:10.36,2013-07-31 16:42:00,
2013-07-31 11:47:00,73.8,64.2,30.06,NE,41,0.0,0.0,72,0.00,,,0.00,WeatherDisplay:10.36,2013-07-31 16:47:00,
2013-07-31 11:52:00,73.8,64.2,30.06,North,351,0.0,0.0,72,0.00,,,0.00,WeatherDisplay:10.36,2013-07-31 16:52:00,
2013-07-31 11:57:00,73.8,63.8,30.06,NE,39,5.8,5.8,71,0.00,,,0.00,WeatherDisplay:10.36,2013-07-31 16:57:00,
2013-07-31 12:02:00,73.8,63.4,30.06,North,351,4.9,0.0,70,0.00,,,0.00,WeatherDisplay:10.36,2013-07-31 17:02:00,
2013-07-31 12:08:00,73.6,63.2,30.06,NE,43,0.0,0.0,70,0.00,,,0.00,WeatherDisplay:10.36,2013-07-31 17:08:00,
2013-07-31 12:13:00,73.6,63.2,30.06,North,351,0.0,3.6,70,0.00,,,0.00,WeatherDisplay:10.36,2013-07-31 17:13:00,
2013-07-31 12:18:00,73.4,63.0,30.88,North,351,0.0,0.0,70,0.00,,,0.00,WeatherDisplay:10.36,2013-07-31 17:18:00,
2013-07-31 12:23:00,73.4,63.0,30.88,NE,41,0.0,0.0,70,0.00,,,0.00,WeatherDisplay:10.36,2013-07-31 17:23:00,
2013-07-31 12:28:00,73.4,63.0,30.88,NE,40,0.0,0.0,70,0.00,,,0.00,WeatherDisplay:10.36,2013-07-31 17:28:00,
2013-07-31 12:33:00,73.4,63.0,30.06,NE,39,0.0,0.0,70,0.00,,,0.00,WeatherDisplay:10.36,2013-07-31 17:33:00,
2013-07-31 12:38:00,73.4,63.0,30.06,NE,41,0.0,0.0,70,0.00,,,0.00,WeatherDisplay:10.36,2013-07-31 17:38:00,
2013-07-31 12:43:00,73.4,63.4,30.06,NE,42,0.0,0.0,71,0.00,,,0.00,WeatherDisplay:10.36,2013-07-31 17:43:00,
2013-07-31 12:48:00,73.6,63.6,30.06,NE,42,0.0,0.0,71,0.00,,,0.00,WeatherDisplay:10.36,2013-07-31 17:48:00,
2013-07-31 12:53:00,73.9,63.9,30.06,NE,41,0.0,0.0,71,0.00,,,0.00,WeatherDisplay:10.36,2013-07-31 17:53:00,
2013-07-31 12:58:00,74.1,63.3,30.06,NE,42,5.8,5.8,69,0.00,,,0.00,WeatherDisplay:10.36,2013-07-31 17:58:00,
2013-07-31 13:03:00,74.5,63.6,30.06,NE,44,0.0,0.0,69,0.00,,,0.00,WeatherDisplay:10.36,2013-07-31 18:03:00,
2013-07-31 13:08:00,75.0,64.2,30.06,NE,43,0.0,2.7,69,0.00,,,0.00,WeatherDisplay:10.36,2013-07-31 18:08:00,
2013-07-31 13:13:00,75.4,64.5,30.06,NE,43,2.7,0.0,69,0.00,,,0.00,WeatherDisplay:10.36,2013-07-31 18:13:00,
2013-07-31 13:18:00,75.6,64.3,30.06,NE,42,0.0,0.0,68,0.00,,,0.00,WeatherDisplay:10.36,2013-07-31 18:18:00,
2013-07-31 13:23:00,75.4,63.2,30.06,NE,41,0.0,3.1,66,0.00,,,0.00,WeatherDisplay:10.36,2013-07-31 18:23:00,
2013-07-31 13:28:00,75.4,63.2,30.06,NE,42,3.6,3.6,66,0.00,,,0.00,WeatherDisplay:10.36,2013-07-31 18:28:00,
2013-07-31 13:33:00,75.6,63.4,30.06,NE,39,0.0,3.1,66,0.00,,,0.00,WeatherDisplay:10.36,2013-07-31 18:33:00,
2013-07-31 13:38:00,76.1,63.9,30.06,NE,41,0.0,0.0,66,0.00,,,0.00,WeatherDisplay:10.36,2013-07-31 18:38:00,
2013-07-31 13:43:00,76.6,64.0,30.06,NE,43,0.0,0.0,65,0.00,,,0.00,WeatherDisplay:10.36,2013-07-31 18:43:00,
2013-07-31 13:48:00,77.4,64.2,30.06,NE,41,4.9,4.9,64,0.00,,,0.00,WeatherDisplay:10.36,2013-07-31 18:48:00,
2013-07-31 13:53:00,77.4,60.9,30.06,NE,42,4.9,4.9,57,0.00,,,0.00,WeatherDisplay:10.36,2013-07-31 18:53:00,
2013-07-31 13:58:00,77.5,61.1,30.06,North,351,0.0,0.0,57,0.00,,,0.00,WeatherDisplay:10.36,2013-07-31 18:58:00,
2013-07-31 14:03:00,77.5,61.1,30.23,North,351,0.0,0.0,57,0.00,,,0.00,WeatherDisplay:10.36,2013-07-31 19:03:00,
2013-07-31 14:08:00,77.9,61.4,30.23,NE,39,0.0,2.7,57,0.00,,,0.00,WeatherDisplay:10.36,2013-07-31 19:08:00,
2013-07-31 14:13:00,77.9,61.4,30.23,West,261,0.0,0.0,57,0.00,,,0.00,WeatherDisplay:10.36,2013-07-31 19:13:00,
2013-07-31 14:18:00,77.9,60.9,30.06,NE,42,3.6,0.0,56,0.00,,,0.00,WeatherDisplay:10.36,2013-07-31 19:18:00,
2013-07-31 14:23:00,77.7,61.3,30.06,NE,42,0.0,0.0,57,0.00,,,0.00,WeatherDisplay:10.36,2013-07-31 19:23:00,
2013-07-31 14:28:00,77.7,61.3,30.06,NE,42,0.0,0.0,57,0.00,,,0.00,WeatherDisplay:10.36,2013-07-31 19:28:00,
2013-07-31 14:33:00,77.9,61.4,30.06,NE,42,0.0,2.7,57,0.00,,,0.00,WeatherDisplay:10.36,2013-07-31 19:33:00,
2013-07-31 14:39:00,77.9,60.4,30.06,North,351,4.0,0.0,55,0.00,,,0.00,WeatherDisplay:10.36,2013-07-31 19:39:00,
2013-07-31 14:44:00,77.9,60.9,30.06,NE,42,3.6,0.0,56,0.00,,,0.00,WeatherDisplay:10.36,2013-07-31 19:44:00,
2013-07-31 14:49:00,77.4,59.4,30.06,North,351,5.8,0.0,54,0.00,,,0.00,WeatherDisplay:10.36,2013-07-31 19:49:00,
2013-07-31 14:54:00,77.2,60.3,30.06,North,351,0.0,0.0,56,0.00,,,0.00,WeatherDisplay:10.36,2013-07-31 19:54:00,
2013-07-31 14:59:00,77.0,60.1,30.06,North,351,4.0,4.0,56,0.00,,,0.00,WeatherDisplay:10.36,2013-07-31 19:59:00,
2013-07-31 15:04:00,76.8,60.4,30.88,North,351,0.0,0.0,57,0.00,,,0.00,WeatherDisplay:10.36,2013-07-31 20:04:00,
2013-07-31 15:09:00,77.2,61.3,30.88,North,351,4.6,4.6,58,0.00,,,0.00,WeatherDisplay:10.36,2013-07-31 20:09:00,
2013-07-31 15:14:00,77.4,61.4,30.88,NE,55,0.0,0.0,58,0.00,,,0.00,WeatherDisplay:10.36,2013-07-31 20:14:00,
2013-07-31 15:19:00,77.5,61.6,30.88,NE,43,2.7,0.0,58,0.00,,,0.00,WeatherDisplay:10.36,2013-07-31 20:19:00,
2013-07-31 15:24:00,78.1,62.1,30.88,NE,42,0.0,0.0,58,0.00,,,0.00,WeatherDisplay:10.36,2013-07-31 20:24:00,
2013-07-31 15:29:00,78.3,60.8,30.88,North,351,3.6,0.0,55,0.00,,,0.00,WeatherDisplay:10.36,2013-07-31 20:29:00,
2013-07-31 15:34:00,78.1,60.6,30.88,North,351,0.0,0.0,55,0.00,,,0.00,WeatherDisplay:10.36,2013-07-31 20:34:00,
2013-07-31 15:39:00,78.1,60.6,30.88,North,351,4.6,0.0,55,0.00,,,0.00,WeatherDisplay:10.36,2013-07-31 20:39:00,
2013-07-31 15:44:00,78.1,61.1,30.88,NE,39,5.8,5.8,56,0.00,,,0.00,WeatherDisplay:10.36,2013-07-31 20:44:00,
2013-07-31 15:49:00,78.1,60.6,30.06,WSW,256,4.5,0.0,55,0.00,,,0.00,WeatherDisplay:10.36,2013-07-31 20:49:00,
2013-07-31 15:54:00,78.3,61.3,30.06,North,351,0.0,0.0,56,0.00,,,0.00,WeatherDisplay:10.36,2013-07-31 20:54:00,
2013-07-31 15:59:00,78.6,61.1,30.06,North,351,5.8,0.0,55,0.00,,,0.00,WeatherDisplay:10.36,2013-07-31 20:59:00,
2013-07-31 16:04:00,78.6,60.6,30.88,North,351,0.0,0.0,54,0.00,,,0.00,WeatherDisplay:10.36,2013-07-31 21:04:00,
2013-07-31 16:09:00,78.8,60.2,30.88,NE,39,0.0,0.0,53,0.00,,,0.00,WeatherDisplay:10.36,2013-07-31 21:09:00,
2013-07-31 16:14:00,78.8,60.2,30.88,North,351,4.0,4.0,53,0.00,,,0.00,WeatherDisplay:10.36,2013-07-31 21:14:00,
2013-07-31 16:19:00,78.8,60.7,30.85,North,351,0.0,0.0,54,0.00,,,0.00,WeatherDisplay:10.36,2013-07-31 21:19:00,
2013-07-31 16:24:00,79.0,60.4,30.85,North,351,0.0,0.0,53,0.00,,,0.00,WeatherDisplay:10.36,2013-07-31 21:24:00,
2013-07-31 16:29:00,79.2,61.1,30.85,NE,39,0.0,0.0,54,0.00,,,0.00,WeatherDisplay:10.36,2013-07-31 21:29:00,
2013-07-31 16:34:00,79.0,60.4,30.85,NE,41,0.0,0.0,53,0.00,,,0.00,WeatherDisplay:10.36,2013-07-31 21:34:00,
2013-07-31 16:39:00,78.8,59.1,30.85,North,351,9.2,9.2,51,0.00,,,0.00,WeatherDisplay:10.36,2013-07-31 21:39:00,
2013-07-31 16:44:00,78.4,59.9,30.85,WSW,258,0.0,0.0,53,0.00,,,0.00,WeatherDisplay:10.36,2013-07-31 21:44:00,
2013-07-31 16:49:00,78.4,60.4,30.85,North,351,0.0,0.0,54,0.00,,,0.00,WeatherDisplay:10.36,2013-07-31 21:49:00,
2013-07-31 16:54:00,78.4,59.9,30.85,NE,41,6.3,6.3,53,0.00,,,0.00,WeatherDisplay:10.36,2013-07-31 21:54:00,
2013-07-31 16:59:00,78.3,59.2,30.85,North,351,4.6,0.0,52,0.00,,,0.00,WeatherDisplay:10.36,2013-07-31 21:59:00,
2013-07-31 17:04:00,78.1,59.0,30.03,NE,41,4.9,4.9,52,0.00,,,0.00,WeatherDisplay:10.36,2013-07-31 22:04:00,
2013-07-31 17:09:00,78.3,60.2,30.03,NE,43,0.0,0.0,54,0.00,,,0.00,WeatherDisplay:10.36,2013-07-31 22:09:00,
2013-07-31 17:14:00,78.6,60.6,30.03,NE,43,3.5,3.5,54,0.00,,,0.00,WeatherDisplay:10.36,2013-07-31 22:14:00,
2013-07-31 17:19:00,78.8,60.7,30.03,North,351,5.8,5.8,54,0.00,,,0.00,WeatherDisplay:10.36,2013-07-31 22:19:00,
2013-07-31 17:24:00,78.6,60.1,30.03,NE,40,3.6,0.0,53,0.00,,,0.00,WeatherDisplay:10.36,2013-07-31 22:24:00,
2013-07-31 17:29:00,78.6,60.1,30.03,NE,41,0.0,0.0,53,0.00,,,0.00,WeatherDisplay:10.36,2013-07-31 22:29:00,
2013-07-31 17:34:00,78.6,60.6,30.03,NE,42,0.0,0.0,54,0.00,,,0.00,WeatherDisplay:10.36,2013-07-31 22:34:00,
2013-07-31 17:39:00,78.6,60.1,30.03,North,351,6.9,6.9,53,0.00,,,0.00,WeatherDisplay:10.36,2013-07-31 22:39:00,
2013-07-31 17:44:00,78.4,59.9,30.03,NE,41,0.0,0.0,53,0.00,,,0.00,WeatherDisplay:10.36,2013-07-31 22:44:00,
2013-07-31 17:49:00,78.4,59.9,30.03,NE,41,4.0,0.0,53,0.00,,,0.00,WeatherDisplay:10.36,2013-07-31 22:49:00,
2013-07-31 17:54:00,78.4,59.9,30.03,NE,39,0.0,0.0,53,0.00,,,0.00,WeatherDisplay:10.36,2013-07-31 22:54:00,
2013-07-31 17:59:00,78.3,60.2,30.03,NE,39,4.0,0.0,54,0.00,,,0.00,WeatherDisplay:10.36,2013-07-31 22:59:00,
2013-07-31 18:01:00,78.3,60.2,30.03,NE,38,5.4,5.4,54,0.00,,,0.00,WeatherDisplay:10.36,2013-07-31 23:01:00,
2013-07-31 18:06:00,78.1,60.1,30.03,NE,38,0.0,0.0,54,0.00,,,0.00,WeatherDisplay:10.36,2013-07-31 23:06:00,
2013-07-31 18:12:00,78.1,60.1,30.03,NE,38,4.5,4.5,54,0.00,,,0.00,WeatherDisplay:10.36,2013-07-31 23:12:00,
2013-07-31 18:17:00,77.7,60.3,30.85,WSW,254,0.0,0.0,55,0.00,,,0.00,WeatherDisplay:10.36,2013-07-31 23:17:00,
2013-07-31 18:23:00,77.5,60.6,30.85,North,351,3.6,3.6,56,0.00,,,0.00,WeatherDisplay:10.36,2013-07-31 23:23:00,
2013-07-31 18:28:00,77.4,60.4,30.85,North,351,0.0,0.0,56,0.00,,,0.00,WeatherDisplay:10.36,2013-07-31 23:28:00,
2013-07-31 18:33:00,77.2,60.8,30.82,North,351,0.0,0.0,57,0.00,,,0.00,WeatherDisplay:10.36,2013-07-31 23:33:00,
2013-07-31 18:38:00,77.2,60.8,30.82,North,351,0.0,0.0,57,0.00,,,0.00,WeatherDisplay:10.36,2013-07-31 23:38:00,
2013-07-31 18:43:00,77.2,61.3,30.82,North,351,3.6,0.0,58,0.00,,,0.00,WeatherDisplay:10.36,2013-07-31 23:43:00,
2013-07-31 18:48:00,77.0,61.1,30.82,North,351,0.0,0.0,58,0.00,,,0.00,WeatherDisplay:10.36,2013-07-31 23:48:00,
2013-07-31 18:53:00,77.0,61.1,30.82,North,351,2.7,0.0,58,0.00,,,0.00,WeatherDisplay:10.36,2013-07-31 23:53:00,
2013-07-31 18:58:00,76.8,60.9,30.82,North,351,0.0,0.0,58,0.00,,,0.00,WeatherDisplay:10.36,2013-07-31 23:58:00,
2013-07-31 19:03:00,76.6,60.8,30.82,North,351,0.0,0.0,58,0.00,,,0.00,WeatherDisplay:10.36,2013-08-01 00:03:00,
2013-07-31 19:08:00,76.5,60.6,30.82,North,351,0.0,0.0,58,0.00,,,0.00,WeatherDisplay:10.36,2013-08-01 00:08:00,
2013-07-31 19:13:00,76.3,60.9,30.82,North,351,0.0,0.0,59,0.00,,,0.00,WeatherDisplay:10.36,2013-08-01 00:13:00,
2013-07-31 19:18:00,76.3,60.9,30.82,North,351,0.0,0.0,59,0.00,,,0.00,WeatherDisplay:10.36,2013-08-01 00:18:00,
2013-07-31 19:23:00,76.3,61.4,30.82,North,351,0.0,0.0,60,0.00,,,0.00,WeatherDisplay:10.36,2013-08-01 00:23:00,
2013-07-31 19:28:00,76.3,61.4,30.82,North,351,0.0,0.0,60,0.00,,,0.00,WeatherDisplay:10.36,2013-08-01 00:28:00,
2013-07-31 19:33:00,76.3,61.8,30.82,North,351,0.0,0.0,61,0.00,,,0.00,WeatherDisplay:10.36,2013-08-01 00:33:00,
2013-07-31 19:38:00,76.1,62.1,30.82,North,351,0.0,0.0,62,0.00,,,0.00,WeatherDisplay:10.36,2013-08-01 00:38:00,
2013-07-31 19:44:00,75.9,62.4,30.82,North,351,0.0,0.0,63,0.00,,,0.00,WeatherDisplay:10.36,2013-08-01 00:44:00,
2013-07-31 19:49:00,75.7,62.2,30.82,North,351,0.0,0.0,63,0.00,,,0.00,WeatherDisplay:10.36,2013-08-01 00:49:00,
2013-07-31 19:54:00,75.6,62.1,30.82,North,351,0.0,0.0,63,0.00,,,0.00,WeatherDisplay:10.36,2013-08-01 00:54:00,
2013-07-31 19:59:00,75.6,62.1,30.82,North,351,0.0,0.0,63,0.00,,,0.00,WeatherDisplay:10.36,2013-08-01 00:59:00,
2013-07-31 20:04:00,75.4,62.4,30.82,North,351,0.0,0.0,64,0.00,,,0.00,WeatherDisplay:10.36,2013-08-01 01:04:00,
2013-07-31 20:09:00,75.2,62.2,30.82,North,351,0.0,0.0,64,0.00,,,0.00,WeatherDisplay:10.36,2013-08-01 01:09:00,
2013-07-31 20:14:00,75.0,62.0,30.82,North,351,0.0,0.0,64,0.00,,,0.00,WeatherDisplay:10.36,2013-08-01 01:14:00,
2013-07-31 20:19:00,74.8,61.8,30.85,North,351,0.0,0.0,64,0.00,,,0.00,WeatherDisplay:10.36,2013-08-01 01:19:00,
2013-07-31 20:24:00,74.7,61.7,30.85,North,351,0.0,0.0,64,0.00,,,0.00,WeatherDisplay:10.36,2013-08-01 01:24:00,
2013-07-31 20:29:00,74.5,61.9,30.85,North,351,0.0,0.0,65,0.00,,,0.00,WeatherDisplay:10.36,2013-08-01 01:29:00,
2013-07-31 20:34:00,74.3,61.8,30.85,North,351,0.0,0.0,65,0.00,,,0.00,WeatherDisplay:10.36,2013-08-01 01:34:00,
2013-07-31 20:40:00,73.9,61.9,30.85,North,351,0.0,0.0,66,0.00,,,0.00,WeatherDisplay:10.36,2013-08-01 01:40:00,
2013-07-31 20:45:00,73.9,61.9,30.85,North,351,0.0,0.0,66,0.00,,,0.00,WeatherDisplay:10.36,2013-08-01 01:45:00,
2013-07-31 20:50:00,73.8,61.7,30.85,North,351,0.0,0.0,66,0.00,,,0.00,WeatherDisplay:10.36,2013-08-01 01:50:00,
2013-07-31 20:55:00,73.6,61.9,30.85,North,351,0.0,0.0,67,0.00,,,0.00,WeatherDisplay:10.36,2013-08-01 01:55:00,
2013-07-31 21:00:00,73.2,61.6,30.85,North,351,0.0,0.0,67,0.00,,,0.00,WeatherDisplay:10.36,2013-08-01 02:00:00,
2013-07-31 21:05:00,73.0,61.4,30.85,North,351,0.0,0.0,67,0.00,,,0.00,WeatherDisplay:10.36,2013-08-01 02:05:00,
2013-07-31 21:10:00,73.0,61.9,30.85,North,351,0.0,0.0,68,0.00,,,0.00,WeatherDisplay:10.36,2013-08-01 02:10:00,
2013-07-31 21:15:00,72.9,61.7,30.85,North,351,0.0,0.0,68,0.00,,,0.00,WeatherDisplay:10.36,2013-08-01 02:15:00,
2013-07-31 21:20:00,72.7,61.9,30.85,North,351,0.0,0.0,69,0.00,,,0.00,WeatherDisplay:10.36,2013-08-01 02:20:00,
2013-07-31 21:25:00,72.5,61.7,30.85,North,351,0.0,0.0,69,0.00,,,0.00,WeatherDisplay:10.36,2013-08-01 02:25:00,
2013-07-31 21:30:00,72.3,62.0,30.85,North,351,0.0,0.0,70,0.00,,,0.00,WeatherDisplay:10.36,2013-08-01 02:30:00,
2013-07-31 21:35:00,72.3,62.0,30.85,North,351,0.0,0.0,70,0.00,,,0.00,WeatherDisplay:10.36,2013-08-01 02:35:00,
2013-07-31 21:40:00,72.1,61.8,30.85,North,351,0.0,0.0,70,0.00,,,0.00,WeatherDisplay:10.36,2013-08-01 02:40:00,
2013-07-31 21:45:00,72.0,62.0,30.85,North,351,0.0,0.0,71,0.00,,,0.00,WeatherDisplay:10.36,2013-08-01 02:45:00,
2013-07-31 21:50:00,72.0,62.0,30.85,North,351,0.0,0.0,71,0.00,,,0.00,WeatherDisplay:10.36,2013-08-01 02:50:00,
2013-07-31 21:55:00,71.8,61.9,30.85,North,351,0.0,0.0,71,0.00,,,0.00,WeatherDisplay:10.36,2013-08-01 02:55:00,
2013-07-31 22:00:00,71.6,62.1,30.85,North,351,0.0,0.0,72,0.00,,,0.00,WeatherDisplay:10.36,2013-08-01 03:00:00,
2013-07-31 22:05:00,71.6,62.1,30.85,North,351,0.0,0.0,72,0.00,,,0.00,WeatherDisplay:10.36,2013-08-01 03:05:00,
2013-07-31 22:10:00,71.4,62.3,30.85,North,351,0.0,0.0,73,0.00,,,0.00,WeatherDisplay:10.36,2013-08-01 03:10:00,
2013-07-31 22:16:00,71.4,62.3,30.85,North,351,0.0,0.0,73,0.00,,,0.00,WeatherDisplay:10.36,2013-08-01 03:16:00,
2013-07-31 22:21:00,71.4,62.3,30.85,North,351,0.0,0.0,73,0.00,,,0.00,WeatherDisplay:10.36,2013-08-01 03:21:00,
2013-07-31 22:26:00,71.2,62.5,30.85,North,351,0.0,0.0,74,0.00,,,0.00,WeatherDisplay:10.36,2013-08-01 03:26:00,
2013-07-31 22:31:00,71.2,62.5,30.85,North,351,0.0,0.0,74,0.00,,,0.00,WeatherDisplay:10.36,2013-08-01 03:31:00,
2013-07-31 22:36:00,71.1,62.4,30.85,North,351,0.0,0.0,74,0.00,,,0.00,WeatherDisplay:10.36,2013-08-01 03:36:00,
2013-07-31 22:41:00,71.1,62.7,30.85,North,351,0.0,0.0,75,0.00,,,0.00,WeatherDisplay:10.36,2013-08-01 03:41:00,
2013-07-31 22:46:00,71.1,62.7,30.85,North,351,0.0,0.0,75,0.00,,,0.00,WeatherDisplay:10.36,2013-08-01 03:46:00,
2013-07-31 22:51:00,70.9,62.6,30.85,North,351,0.0,0.0,75,0.00,,,0.00,WeatherDisplay:10.36,2013-08-01 03:51:00,
2013-07-31 22:56:00,70.9,62.6,30.85,North,351,0.0,0.0,75,0.00,,,0.00,WeatherDisplay:10.36,2013-08-01 03:56:00,
2013-07-31 23:01:00,70.9,62.6,30.85,North,351,0.0,0.0,75,0.00,,,0.00,WeatherDisplay:10.36,2013-08-01 04:01:00,
2013-07-31 23:02:00,70.9,62.9,30.85,North,351,0.0,0.0,76,0.00,,,0.00,WeatherDisplay:10.36,2013-08-01 04:02:00,
2013-07-31 23:03:00,70.7,62.8,30.85,North,351,0.0,0.0,76,0.00,,,0.00,WeatherDisplay:10.36,2013-08-01 04:03:00,
2013-07-31 23:04:00,70.7,62.8,30.85,North,351,0.0,0.0,76,0.00,,,0.00,WeatherDisplay:10.36,2013-08-01 04:04:00,
2013-07-31 23:06:00,70.7,62.8,30.85,North,351,0.0,0.0,76,0.00,,,0.00,WeatherDisplay:10.36,2013-08-01 04:06:00,
2013-07-31 23:11:00,70.7,62.8,30.85,North,351,0.0,0.0,76,0.00,,,0.00,WeatherDisplay:10.36,2013-08-01 04:11:00,
2013-07-31 23:16:00,70.7,62.8,30.85,North,351,0.0,0.0,76,0.00,,,0.00,WeatherDisplay:10.36,2013-08-01 04:16:00,
2013-07-31 23:22:00,70.5,63.0,30.85,North,351,0.0,0.0,77,0.00,,,0.00,WeatherDisplay:10.36,2013-08-01 04:22:00,
2013-07-31 23:27:00,70.5,63.0,30.85,NE,40,0.0,0.0,77,0.00,,,0.00,WeatherDisplay:10.36,2013-08-01 04:27:00,
2013-07-31 23:32:00,70.3,62.8,30.03,NE,39,0.0,0.0,77,0.00,,,0.00,WeatherDisplay:10.36,2013-08-01 04:32:00,
2013-07-31 23:37:00,70.3,62.8,30.03,NE,40,0.0,0.0,77,0.00,,,0.00,WeatherDisplay:10.36,2013-08-01 04:37:00,
2013-07-31 23:42:00,70.3,62.8,30.03,NE,41,0.0,0.0,77,0.00,,,0.00,WeatherDisplay:10.36,2013-08-01 04:42:00,
2013-07-31 23:47:00,70.3,63.2,30.06,NE,41,0.0,0.0,78,0.00,,,0.00,WeatherDisplay:10.36,2013-08-01 04:47:00,
2013-07-31 23:53:00,70.2,63.0,30.06,NE,42,0.0,0.0,78,0.00,,,0.00,WeatherDisplay:10.36,2013-08-01 04:53:00,
2013-07-31 23:58:00,70.2,63.0,30.06,NE,43,0.0,0.0,78,0.00,,,0.00,WeatherDisplay:10.36,2013-08-01 04:58:00,